createdAt,value
2022-11-07T00:00:12.958Z,12.13
2022-11-07T00:01:12.946Z,12.15
2022-11-07T00:02:13.077Z,12.16
2022-11-07T00:03:13.191Z,12.15
2022-11-07T00:04:12.912Z,12.15
2022-11-07T00:05:12.901Z,12.15
2022-11-07T00:06:12.889Z,12.19
2022-11-07T00:07:12.899Z,12.16
2022-11-07T00:08:12.871Z,12.15
2022-11-07T00:09:12.864Z,12.16
2022-11-07T00:10:12.850Z,12.19
2022-11-07T00:11:12.843Z,12.19
2022-11-07T00:12:12.852Z,12.20
2022-11-07T00:13:13.190Z,12.19
2022-11-07T00:14:12.810Z,12.21
2022-11-07T00:15:12.792Z,12.21
2022-11-07T00:16:12.783Z,12.23
2022-11-07T00:17:12.771Z,12.24
2022-11-07T00:18:12.782Z,12.24
2022-11-07T00:19:12.754Z,12.23
2022-11-07T00:20:12.762Z,12.24
2022-11-07T00:21:12.721Z,12.26
2022-11-07T00:22:12.720Z,12.26
2022-11-07T00:23:13.036Z,12.26
2022-11-07T00:24:12.722Z,12.26
2022-11-07T00:25:12.682Z,12.27
2022-11-07T00:26:12.674Z,12.26
2022-11-07T00:27:12.686Z,12.24
2022-11-07T00:28:12.661Z,12.24
2022-11-07T00:29:12.662Z,12.24
2022-11-07T00:30:12.631Z,12.24
2022-11-07T00:31:12.629Z,12.24
2022-11-07T00:32:12.606Z,12.23
2022-11-07T00:33:12.764Z,12.20
2022-11-07T00:34:12.587Z,12.21
2022-11-07T00:35:12.595Z,12.21
2022-11-07T00:36:12.562Z,12.20
2022-11-07T00:37:12.544Z,12.21
2022-11-07T00:38:12.543Z,12.20
2022-11-07T00:39:12.550Z,12.19
2022-11-07T00:40:12.522Z,12.19
2022-11-07T00:41:12.506Z,12.20
2022-11-07T00:42:12.500Z,12.23
2022-11-07T00:43:12.910Z,12.21
2022-11-07T00:44:12.493Z,12.21
2022-11-07T00:45:12.466Z,12.21
2022-11-07T00:46:12.454Z,12.23
2022-11-07T00:47:12.434Z,12.23
2022-11-07T00:48:12.446Z,12.23
2022-11-07T00:49:12.413Z,12.21
2022-11-07T00:50:12.405Z,12.23
2022-11-07T00:51:12.394Z,12.21
2022-11-07T00:52:12.384Z,12.23
2022-11-07T00:53:12.706Z,12.23
2022-11-07T00:54:12.384Z,12.24
2022-11-07T00:55:12.347Z,12.24
2022-11-07T00:56:12.348Z,12.26
2022-11-07T00:57:12.324Z,12.26
2022-11-07T00:58:14.139Z,12.27
2022-11-07T00:59:12.304Z,12.30
2022-11-07T01:00:12.316Z,12.31
2022-11-07T01:01:12.341Z,12.37
2022-11-07T01:02:12.313Z,12.38
2022-11-07T01:03:12.552Z,12.41
2022-11-07T01:04:12.278Z,12.42
2022-11-07T01:05:12.259Z,12.44
2022-11-07T01:06:12.226Z,12.42
2022-11-07T01:07:12.215Z,12.41
2022-11-07T01:08:12.206Z,12.38
2022-11-07T01:09:12.188Z,12.37
2022-11-07T01:10:12.205Z,12.38
2022-11-07T01:11:12.171Z,12.39
2022-11-07T01:12:12.156Z,12.41
2022-11-07T01:13:12.469Z,12.42
2022-11-07T01:14:12.137Z,12.41
2022-11-07T01:15:12.130Z,12.42
2022-11-07T01:16:12.137Z,12.42
2022-11-07T01:17:12.100Z,12.42
2022-11-07T01:18:12.098Z,12.42
2022-11-07T01:19:12.086Z,12.42
2022-11-07T01:20:12.077Z,12.45
2022-11-07T01:21:16.293Z,12.45
2022-11-07T01:22:12.047Z,12.46
2022-11-07T01:23:12.109Z,12.48
2022-11-07T01:24:12.032Z,12.48
2022-11-07T01:25:12.016Z,12.49
2022-11-07T01:26:12.020Z,12.48
2022-11-07T01:27:11.990Z,12.48
2022-11-07T01:28:11.981Z,12.48
2022-11-07T01:29:11.971Z,12.48
2022-11-07T01:30:11.959Z,12.49
2022-11-07T01:31:12.002Z,12.51
2022-11-07T01:32:11.933Z,12.52
2022-11-07T01:33:12.143Z,12.52
2022-11-07T01:34:11.911Z,12.52
2022-11-07T01:35:11.902Z,12.51
2022-11-07T01:36:11.910Z,12.52
2022-11-07T01:37:11.891Z,12.51
2022-11-07T01:38:11.872Z,12.52
2022-11-07T01:39:11.880Z,12.51
2022-11-07T01:40:11.848Z,12.51
2022-11-07T01:41:11.840Z,12.51
2022-11-07T01:42:11.842Z,12.52
2022-11-07T01:43:12.130Z,12.56
2022-11-07T01:44:11.835Z,12.54
2022-11-07T01:45:11.799Z,12.57
2022-11-07T01:46:11.782Z,12.54
2022-11-07T01:47:11.790Z,12.56
2022-11-07T01:48:11.753Z,12.56
2022-11-07T01:49:11.753Z,12.54
2022-11-07T01:50:11.743Z,12.52
2022-11-07T01:51:11.730Z,12.52
2022-11-07T01:52:11.732Z,12.54
2022-11-07T01:53:11.889Z,12.54
2022-11-07T01:54:11.692Z,12.52
2022-11-07T01:55:11.683Z,12.49
2022-11-07T01:56:11.674Z,12.48
2022-11-07T01:57:11.683Z,12.48
2022-11-07T01:58:11.644Z,12.46
2022-11-07T01:59:11.646Z,12.44
2022-11-07T02:00:11.623Z,12.41
2022-11-07T02:01:11.622Z,12.39
2022-11-07T02:02:11.688Z,12.38
2022-11-07T02:03:11.869Z,12.37
2022-11-07T02:04:11.583Z,12.33
2022-11-07T02:05:11.583Z,12.30
2022-11-07T02:06:11.564Z,12.29
2022-11-07T02:07:11.587Z,12.27
2022-11-07T02:08:11.543Z,12.29
2022-11-07T02:09:11.524Z,12.26
2022-11-07T02:10:11.515Z,12.24
2022-11-07T02:11:11.509Z,12.24
2022-11-07T02:12:11.496Z,12.26
2022-11-07T02:13:11.772Z,12.24
2022-11-07T02:14:11.474Z,12.24
2022-11-07T02:15:11.466Z,12.26
2022-11-07T02:16:11.446Z,12.23
2022-11-07T02:17:11.445Z,12.23
2022-11-07T02:18:11.456Z,12.23
2022-11-07T02:19:11.415Z,12.23
2022-11-07T02:20:11.405Z,12.27
2022-11-07T02:21:11.399Z,12.30
2022-11-07T02:22:11.383Z,12.31
2022-11-07T02:23:11.535Z,12.34
2022-11-07T02:24:11.366Z,12.34
2022-11-07T02:25:11.355Z,12.39
2022-11-07T02:26:11.338Z,12.41
2022-11-07T02:27:11.341Z,12.42
2022-11-07T02:28:11.345Z,12.42
2022-11-07T02:29:11.309Z,12.41
2022-11-07T02:30:11.298Z,12.41
2022-11-07T02:31:11.288Z,12.41
2022-11-07T02:32:11.267Z,12.42
2022-11-07T02:33:11.465Z,12.44
2022-11-07T02:34:11.246Z,12.44
2022-11-07T02:35:11.238Z,12.44
2022-11-07T02:36:11.237Z,12.46
2022-11-07T02:37:11.216Z,12.52
2022-11-07T02:38:11.207Z,12.54
2022-11-07T02:39:11.218Z,12.56
2022-11-07T02:40:11.178Z,12.59
2022-11-07T02:41:11.176Z,12.59
2022-11-07T02:42:11.164Z,12.60
2022-11-07T02:43:11.200Z,12.60
2022-11-07T02:44:11.139Z,12.62
2022-11-07T02:45:11.169Z,12.62
2022-11-07T02:46:11.118Z,12.63
2022-11-07T02:47:11.110Z,12.63
2022-11-07T02:48:11.095Z,12.60
2022-11-07T02:49:11.110Z,12.62
2022-11-07T02:50:11.069Z,12.62
2022-11-07T02:51:11.076Z,12.60
2022-11-07T02:52:11.050Z,12.60
2022-11-07T02:53:11.134Z,12.60
2022-11-07T02:54:11.028Z,12.59
2022-11-07T02:55:11.019Z,12.60
2022-11-07T02:56:11.008Z,12.60
2022-11-07T02:57:11.001Z,12.59
2022-11-07T02:58:10.987Z,12.59
2022-11-07T02:59:10.996Z,12.57
2022-11-07T03:00:10.988Z,12.57
2022-11-07T03:01:10.999Z,12.57
2022-11-07T03:02:11.006Z,12.57
2022-11-07T03:03:10.930Z,12.57
2022-11-07T03:04:10.919Z,12.57
2022-11-07T03:05:10.938Z,12.56
2022-11-07T03:06:10.900Z,12.56
2022-11-07T03:07:10.887Z,12.54
2022-11-07T03:08:10.870Z,12.54
2022-11-07T03:09:10.893Z,12.52
2022-11-07T03:10:10.850Z,12.56
2022-11-07T03:11:10.842Z,12.52
2022-11-07T03:12:10.830Z,12.54
2022-11-07T03:13:10.821Z,12.54
2022-11-07T03:14:10.830Z,12.54
2022-11-07T03:15:10.844Z,12.54
2022-11-07T03:16:10.782Z,12.54
2022-11-07T03:17:10.802Z,12.54
2022-11-07T03:18:10.762Z,12.54
2022-11-07T03:19:10.763Z,12.54
2022-11-07T03:20:10.741Z,12.52
2022-11-07T03:21:10.734Z,12.54
2022-11-07T03:22:10.722Z,12.52
2022-11-07T03:23:10.744Z,12.51
2022-11-07T03:24:10.701Z,12.52
2022-11-07T03:25:10.693Z,12.52
2022-11-07T03:26:10.694Z,12.52
2022-11-07T03:27:10.664Z,12.52
2022-11-07T03:28:10.654Z,12.52
2022-11-07T03:29:10.652Z,12.51
2022-11-07T03:30:10.636Z,12.51
2022-11-07T03:31:10.656Z,12.51
2022-11-07T03:32:10.614Z,12.51
2022-11-07T03:33:10.604Z,12.51
2022-11-07T03:34:10.594Z,12.54
2022-11-07T03:35:10.581Z,12.52
2022-11-07T03:36:10.568Z,12.52
2022-11-07T03:37:10.575Z,12.54
2022-11-07T03:38:10.543Z,12.54
2022-11-07T03:39:10.534Z,12.54
2022-11-07T03:40:10.524Z,12.52
2022-11-07T03:41:10.513Z,12.52
2022-11-07T03:42:10.528Z,12.52
2022-11-07T03:43:10.494Z,12.52
2022-11-07T03:44:10.476Z,12.51
2022-11-07T03:45:10.476Z,12.51
2022-11-07T03:46:10.457Z,12.52
2022-11-07T03:47:10.467Z,12.51
2022-11-07T03:48:10.439Z,12.51
2022-11-07T03:49:10.427Z,12.51
2022-11-07T03:50:10.414Z,12.51
2022-11-07T03:51:10.407Z,12.49
2022-11-07T03:52:10.415Z,12.49
2022-11-07T03:53:10.376Z,12.46
2022-11-07T03:54:10.368Z,12.48
2022-11-07T03:55:10.357Z,12.48
2022-11-07T03:56:10.347Z,12.49
2022-11-07T03:57:10.347Z,12.49
2022-11-07T03:58:10.350Z,12.49
2022-11-07T03:59:10.318Z,12.49
2022-11-07T04:00:10.307Z,12.48
2022-11-07T04:01:10.296Z,12.49
2022-11-07T04:02:10.435Z,12.51
2022-11-07T04:03:10.271Z,12.52
2022-11-07T04:04:10.258Z,12.51
2022-11-07T04:05:10.251Z,12.52
2022-11-07T04:06:10.235Z,12.52
2022-11-07T04:07:10.230Z,12.54
2022-11-07T04:08:10.238Z,12.52
2022-11-07T04:09:10.208Z,12.51
2022-11-07T04:10:10.197Z,12.52
2022-11-07T04:11:10.185Z,12.52
2022-11-07T04:12:10.192Z,12.51
2022-11-07T04:13:10.169Z,12.52
2022-11-07T04:14:10.169Z,12.52
2022-11-07T04:15:10.140Z,12.51
2022-11-07T04:16:14.992Z,12.48
2022-11-07T04:17:11.127Z,12.48
2022-11-07T04:18:10.128Z,12.45
2022-11-07T04:19:10.102Z,12.44
2022-11-07T04:20:10.081Z,12.41
2022-11-07T04:21:10.078Z,12.37
2022-11-07T04:22:10.060Z,12.37
2022-11-07T04:23:10.070Z,12.34
2022-11-07T04:24:10.178Z,12.33
2022-11-07T04:25:10.029Z,12.30
2022-11-07T04:26:10.024Z,12.27
2022-11-07T04:27:10.009Z,12.26
2022-11-07T04:28:10.021Z,12.27
2022-11-07T04:29:09.989Z,12.29
2022-11-07T04:30:09.981Z,12.29
2022-11-07T04:31:09.961Z,12.26
2022-11-07T04:32:09.961Z,12.23
2022-11-07T04:33:09.961Z,12.21
2022-11-07T04:34:09.940Z,12.19
2022-11-07T04:35:09.922Z,12.13
2022-11-07T04:36:09.912Z,12.11
2022-11-07T04:37:09.901Z,12.09
2022-11-07T04:38:09.914Z,12.08
2022-11-07T04:39:09.873Z,12.09
2022-11-07T04:40:09.872Z,12.12
2022-11-07T04:41:09.852Z,12.13
2022-11-07T04:42:09.845Z,12.15
2022-11-07T04:43:09.854Z,12.20
2022-11-07T04:44:09.823Z,12.23
2022-11-07T04:45:09.815Z,12.26
2022-11-07T04:46:09.802Z,12.27
2022-11-07T04:47:09.792Z,12.30
2022-11-07T04:48:09.802Z,12.30
2022-11-07T04:49:09.772Z,12.31
2022-11-07T04:50:09.754Z,12.31
2022-11-07T04:51:09.743Z,12.33
2022-11-07T04:52:09.736Z,12.33
2022-11-07T04:53:09.742Z,12.33
2022-11-07T04:54:09.717Z,12.34
2022-11-07T04:55:09.694Z,12.33
2022-11-07T04:56:09.690Z,12.34
2022-11-07T04:57:09.673Z,12.37
2022-11-07T04:58:09.694Z,12.38
2022-11-07T04:59:09.653Z,12.41
2022-11-07T05:00:09.644Z,12.38
2022-11-07T05:01:09.635Z,12.39
2022-11-07T05:02:09.661Z,12.42
2022-11-07T05:03:09.658Z,12.44
2022-11-07T05:04:09.623Z,12.45
2022-11-07T05:05:09.589Z,12.48
2022-11-07T05:06:09.587Z,12.54
2022-11-07T05:07:09.573Z,12.54
2022-11-07T05:08:09.555Z,12.54
2022-11-07T05:09:09.565Z,12.51
2022-11-07T05:10:12.243Z,12.49
2022-11-07T05:11:09.524Z,12.48
2022-11-07T05:12:09.637Z,12.46
2022-11-07T05:13:09.497Z,12.44
2022-11-07T05:14:09.515Z,12.44
2022-11-07T05:15:09.489Z,12.44
2022-11-07T05:16:09.477Z,12.44
2022-11-07T05:17:09.463Z,12.41
2022-11-07T05:18:09.446Z,12.41
2022-11-07T05:19:09.457Z,12.41
2022-11-07T05:20:09.428Z,12.38
2022-11-07T05:21:09.415Z,12.38
2022-11-07T05:22:09.408Z,12.41
2022-11-07T05:23:09.403Z,12.39
2022-11-07T05:24:09.407Z,12.38
2022-11-07T05:25:09.368Z,12.34
2022-11-07T05:26:09.364Z,12.34
2022-11-07T05:27:09.348Z,12.31
2022-11-07T05:28:09.338Z,12.31
2022-11-07T05:29:09.327Z,12.31
2022-11-07T05:30:09.356Z,12.34
2022-11-07T05:31:09.309Z,12.34
2022-11-07T05:32:09.300Z,12.34
2022-11-07T05:33:09.287Z,12.34
2022-11-07T05:34:14.350Z,12.37
2022-11-07T05:35:10.290Z,12.37
2022-11-07T05:36:09.258Z,12.38
2022-11-07T05:37:09.247Z,12.37
2022-11-07T05:38:09.229Z,12.34
2022-11-07T05:39:09.219Z,12.34
2022-11-07T05:40:09.237Z,12.34
2022-11-07T05:41:09.217Z,12.34
2022-11-07T05:42:09.190Z,12.34
2022-11-07T05:43:09.176Z,12.34
2022-11-07T05:44:09.169Z,12.37
2022-11-07T05:45:09.162Z,12.38
2022-11-07T05:46:09.177Z,12.38
2022-11-07T05:47:09.138Z,12.37
2022-11-07T05:48:09.141Z,12.37
2022-11-07T05:49:09.111Z,12.37
2022-11-07T05:50:09.098Z,12.37
2022-11-07T05:51:09.090Z,12.38
2022-11-07T05:52:09.077Z,12.37
2022-11-07T05:53:09.257Z,12.34
2022-11-07T05:54:09.080Z,12.33
2022-11-07T05:55:09.049Z,12.34
2022-11-07T05:56:09.050Z,12.34
2022-11-07T05:57:09.051Z,12.31
2022-11-07T05:58:09.020Z,12.31
2022-11-07T05:59:09.117Z,12.31
2022-11-07T06:00:08.992Z,12.31
2022-11-07T06:01:08.981Z,12.31
2022-11-07T06:02:09.091Z,12.29
2022-11-07T06:03:09.035Z,12.26
2022-11-07T06:04:08.971Z,12.26
2022-11-07T06:05:08.941Z,12.23
2022-11-07T06:06:08.923Z,12.21
2022-11-07T06:07:08.912Z,12.19
2022-11-07T06:08:08.901Z,12.15
2022-11-07T06:09:08.891Z,12.13
2022-11-07T06:10:08.909Z,12.11
2022-11-07T06:11:08.871Z,12.11
2022-11-07T06:12:08.879Z,12.12
2022-11-07T06:13:08.853Z,12.12
2022-11-07T06:14:08.862Z,12.12
2022-11-07T06:15:08.831Z,12.11
2022-11-07T06:16:08.812Z,12.12
2022-11-07T06:17:08.803Z,12.12
2022-11-07T06:18:08.792Z,12.09
2022-11-07T06:19:08.782Z,12.05
2022-11-07T06:20:08.822Z,12.04
2022-11-07T06:21:08.770Z,12.05
2022-11-07T06:22:08.773Z,12.05
2022-11-07T06:23:08.742Z,12.06
2022-11-07T06:24:13.915Z,12.08
2022-11-07T06:25:09.714Z,12.06
2022-11-07T06:26:08.713Z,12.08
2022-11-07T06:27:08.704Z,12.08
2022-11-07T06:28:08.703Z,12.05
2022-11-07T06:29:08.677Z,12.06
2022-11-07T06:30:08.663Z,12.04
2022-11-07T06:31:08.689Z,12.05
2022-11-07T06:32:08.639Z,12.06
2022-11-07T06:33:08.665Z,12.08
2022-11-07T06:34:08.624Z,12.08
2022-11-07T06:35:08.620Z,12.09
2022-11-07T06:36:08.615Z,12.06
2022-11-07T06:37:08.587Z,12.05
2022-11-07T06:38:08.576Z,12.09
2022-11-07T06:39:08.593Z,12.09
2022-11-07T06:40:08.555Z,12.08
2022-11-07T06:41:08.573Z,12.06
2022-11-07T06:42:08.536Z,12.06
2022-11-07T06:43:08.528Z,12.08
2022-11-07T06:44:08.507Z,12.06
2022-11-07T06:45:08.504Z,12.06
2022-11-07T06:46:08.518Z,12.08
2022-11-07T06:47:08.483Z,12.06
2022-11-07T06:48:08.471Z,12.05
2022-11-07T06:49:08.461Z,12.04
2022-11-07T06:50:08.453Z,12.02
2022-11-07T06:51:08.436Z,12.04
2022-11-07T06:52:08.455Z,12.02
2022-11-07T06:53:08.420Z,11.99
2022-11-07T06:54:08.397Z,11.99
2022-11-07T06:55:08.390Z,11.99
2022-11-07T06:56:08.399Z,11.99
2022-11-07T06:57:08.376Z,12.01
2022-11-07T06:58:08.367Z,11.99
2022-11-07T06:59:08.348Z,11.99
2022-11-07T07:00:08.353Z,12.01
2022-11-07T07:01:08.381Z,12.02
2022-11-07T07:02:08.383Z,12.02
2022-11-07T07:03:08.335Z,12.01
2022-11-07T07:04:08.288Z,12.01
2022-11-07T07:05:08.280Z,11.99
2022-11-07T07:06:08.267Z,11.99
2022-11-07T07:07:08.278Z,11.99
2022-11-07T07:08:08.247Z,12.02
2022-11-07T07:09:08.237Z,12.01
2022-11-07T07:10:08.228Z,12.02
2022-11-07T07:11:08.218Z,12.05
2022-11-07T07:12:08.220Z,12.08
2022-11-07T07:13:08.220Z,12.12
2022-11-07T07:14:11.610Z,12.12
2022-11-07T07:15:08.173Z,12.19
2022-11-07T07:16:08.158Z,12.21
2022-11-07T07:17:08.149Z,12.23
2022-11-07T07:18:08.137Z,12.26
2022-11-07T07:19:08.149Z,12.27
2022-11-07T07:20:08.119Z,12.30
2022-11-07T07:21:08.107Z,12.34
2022-11-07T07:22:08.099Z,12.38
2022-11-07T07:23:08.081Z,12.39
2022-11-07T07:24:08.072Z,12.42
2022-11-07T07:25:08.084Z,12.44
2022-11-07T07:26:08.050Z,12.44
2022-11-07T07:27:08.042Z,12.45
2022-11-07T07:28:08.030Z,12.46
2022-11-07T07:29:08.043Z,12.46
2022-11-07T07:30:08.011Z,12.46
2022-11-07T07:31:07.999Z,12.49
2022-11-07T07:32:07.985Z,12.51
2022-11-07T07:33:07.981Z,12.52
2022-11-07T07:34:07.961Z,12.54
2022-11-07T07:35:07.980Z,12.59
2022-11-07T07:36:07.941Z,12.59
2022-11-07T07:37:07.933Z,12.59
2022-11-07T07:38:07.933Z,12.60
2022-11-07T07:39:07.913Z,12.62
2022-11-07T07:40:07.920Z,12.64
2022-11-07T07:41:07.890Z,12.66
2022-11-07T07:42:07.879Z,12.69
2022-11-07T07:43:07.873Z,12.70
2022-11-07T07:44:07.852Z,12.74
2022-11-07T07:45:07.873Z,12.75
2022-11-07T07:46:07.835Z,12.78
2022-11-07T07:47:11.272Z,12.79
2022-11-07T07:48:07.812Z,12.78
2022-11-07T07:49:07.802Z,12.81
2022-11-07T07:50:07.823Z,12.79
2022-11-07T07:51:07.783Z,12.79
2022-11-07T07:52:07.780Z,12.81
2022-11-07T07:53:09.297Z,12.84
2022-11-07T07:54:07.744Z,12.82
2022-11-07T07:55:07.760Z,12.84
2022-11-07T07:56:07.724Z,12.87
2022-11-07T07:57:07.716Z,12.88
2022-11-07T07:58:07.704Z,12.89
2022-11-07T07:59:07.703Z,12.92
2022-11-07T08:00:07.707Z,12.93
2022-11-07T08:01:07.727Z,12.96
2022-11-07T08:02:07.668Z,12.97
2022-11-07T08:03:07.655Z,12.99
2022-11-07T08:04:07.644Z,12.99
2022-11-07T08:05:07.657Z,13.00
2022-11-07T08:06:07.616Z,13.02
2022-11-07T08:07:07.615Z,13.07
2022-11-07T08:08:07.599Z,13.11
2022-11-07T08:09:07.586Z,13.14
2022-11-07T08:10:35.004Z,13.18
2022-11-07T08:11:08.590Z,13.24
2022-11-07T08:12:07.548Z,13.29
2022-11-07T08:13:07.549Z,13.32
2022-11-07T08:14:07.535Z,13.36
2022-11-07T08:15:07.525Z,13.33
2022-11-07T08:16:07.509Z,13.29
2022-11-07T08:17:07.546Z,13.27
2022-11-07T08:18:07.487Z,13.29
2022-11-07T08:19:07.476Z,13.29
2022-11-07T08:20:07.470Z,13.30
2022-11-07T08:21:07.529Z,13.32
2022-11-07T08:22:07.465Z,13.32
2022-11-07T08:23:11.277Z,13.37
2022-11-07T08:24:08.421Z,13.38
2022-11-07T08:25:07.409Z,13.40
2022-11-07T08:26:07.401Z,13.43
2022-11-07T08:27:07.418Z,13.46
2022-11-07T08:28:07.380Z,13.46
2022-11-07T08:29:07.369Z,13.49
2022-11-07T08:30:07.349Z,13.52
2022-11-07T08:31:07.349Z,13.51
2022-11-07T08:32:07.362Z,13.52
2022-11-07T08:33:07.417Z,13.52
2022-11-07T08:34:07.372Z,13.54
2022-11-07T08:35:07.306Z,13.52
2022-11-07T08:36:07.303Z,13.52
2022-11-07T08:37:07.281Z,13.55
2022-11-07T08:38:07.290Z,13.55
2022-11-07T08:39:07.301Z,13.55
2022-11-07T08:40:07.250Z,13.55
2022-11-07T08:41:07.251Z,13.56
2022-11-07T08:42:07.221Z,13.56
2022-11-07T08:43:07.218Z,13.56
2022-11-07T08:44:07.224Z,13.56
2022-11-07T08:45:07.198Z,13.56
2022-11-07T08:46:07.184Z,13.56
2022-11-07T08:47:08.576Z,13.58
2022-11-07T08:48:07.162Z,13.58
2022-11-07T08:49:07.171Z,13.59
2022-11-07T08:50:07.139Z,13.59
2022-11-07T08:51:07.133Z,13.62
2022-11-07T08:52:07.120Z,13.63
2022-11-07T08:53:07.102Z,13.67
2022-11-07T08:54:07.094Z,13.67
2022-11-07T08:55:07.103Z,13.71
2022-11-07T08:56:07.074Z,13.73
2022-11-07T08:57:07.064Z,13.77
2022-11-07T08:58:07.052Z,13.81
2022-11-07T08:59:07.074Z,13.87
2022-11-07T09:00:07.024Z,13.92
2022-11-07T09:01:07.092Z,13.91
2022-11-07T09:03:31.192Z,13.92
2022-11-07T09:04:08.064Z,13.91
2022-11-07T09:05:06.974Z,13.91
2022-11-07T09:06:06.964Z,13.91
2022-11-07T09:07:06.955Z,13.92
2022-11-07T09:08:06.944Z,13.95
2022-11-07T09:09:06.935Z,13.98
2022-11-07T09:10:06.964Z,13.98
2022-11-07T09:11:06.915Z,13.99
2022-11-07T09:12:06.902Z,13.98
2022-11-07T09:13:06.888Z,14.01
2022-11-07T09:14:06.903Z,14.04
2022-11-07T09:15:06.867Z,14.06
2022-11-07T09:16:06.855Z,14.06
2022-11-07T09:17:06.847Z,14.09
2022-11-07T09:18:06.834Z,14.07
2022-11-07T09:19:06.824Z,14.07
2022-11-07T09:20:06.827Z,14.09
2022-11-07T09:21:06.803Z,14.09
2022-11-07T09:22:06.813Z,14.07
2022-11-07T09:23:06.779Z,14.09
2022-11-07T09:24:06.771Z,14.10
2022-11-07T09:25:06.759Z,14.12
2022-11-07T09:26:06.762Z,14.14
2022-11-07T09:27:06.739Z,14.17
2022-11-07T09:28:06.757Z,14.17
2022-11-07T09:29:06.710Z,14.17
2022-11-07T09:30:06.697Z,14.21
2022-11-07T09:31:06.688Z,14.27
2022-11-07T09:32:30.583Z,14.31
2022-11-07T09:33:07.708Z,14.31
2022-11-07T09:34:06.670Z,14.32
2022-11-07T09:35:06.648Z,14.28
2022-11-07T09:36:06.638Z,14.32
2022-11-07T09:37:06.627Z,14.34
2022-11-07T09:38:06.610Z,14.37
2022-11-07T09:39:06.629Z,14.39
2022-11-07T09:40:06.601Z,14.43
2022-11-07T09:41:06.578Z,14.46
2022-11-07T09:42:06.570Z,14.47
2022-11-07T09:43:06.558Z,14.47
2022-11-07T09:44:06.571Z,14.49
2022-11-07T09:45:06.540Z,14.54
2022-11-07T09:46:06.520Z,14.56
2022-11-07T09:47:06.520Z,14.60
2022-11-07T09:48:06.504Z,14.62
2022-11-07T09:49:06.498Z,14.62
2022-11-07T09:50:06.502Z,14.62
2022-11-07T09:51:06.472Z,14.62
2022-11-07T09:52:06.460Z,14.64
2022-11-07T09:53:06.451Z,14.65
2022-11-07T09:54:06.447Z,14.67
2022-11-07T09:55:06.453Z,14.69
2022-11-07T09:56:06.414Z,14.69
2022-11-07T09:57:09.905Z,14.71
2022-11-07T09:58:07.393Z,14.69
2022-11-07T09:59:11.127Z,14.75
2022-11-07T10:00:07.391Z,14.84
2022-11-07T10:01:06.425Z,14.87
2022-11-07T10:02:06.429Z,14.88
2022-11-07T10:03:06.342Z,14.93
2022-11-07T10:05:07.342Z,15.01
2022-11-07T10:06:06.312Z,15.02
2022-11-07T10:07:06.295Z,15.12
2022-11-07T10:08:06.285Z,15.15
2022-11-07T10:09:06.274Z,15.21
2022-11-07T10:10:06.300Z,15.28
2022-11-07T10:11:06.254Z,15.27
2022-11-07T10:12:06.244Z,15.35
2022-11-07T10:13:06.238Z,15.43
2022-11-07T10:14:06.223Z,15.48
2022-11-07T10:15:06.226Z,15.49
2022-11-07T10:16:06.197Z,15.51
2022-11-07T10:17:06.186Z,15.56
2022-11-07T10:18:06.186Z,15.61
2022-11-07T10:19:06.164Z,15.70
2022-11-07T10:20:06.157Z,15.72
2022-11-07T10:21:35.683Z,15.68
2022-11-07T10:22:07.135Z,15.74
2022-11-07T10:23:06.115Z,15.82
2022-11-07T10:24:06.107Z,15.89
2022-11-07T10:25:06.117Z,15.84
2022-11-07T10:26:06.088Z,15.86
2022-11-07T10:27:06.199Z,15.88
2022-11-07T10:28:06.075Z,15.93
2022-11-07T10:29:06.056Z,15.89
2022-11-07T10:30:06.047Z,15.81
2022-11-07T10:31:06.057Z,15.79
2022-11-07T10:32:06.026Z,15.68
2022-11-07T10:33:06.006Z,15.79
2022-11-07T10:34:06.002Z,15.94
2022-11-07T10:35:05.988Z,16.11
2022-11-07T10:36:05.978Z,16.31
2022-11-07T10:37:05.990Z,16.40
2022-11-07T10:38:05.960Z,16.44
2022-11-07T10:39:05.953Z,16.23
2022-11-07T10:40:11.000Z,16.16
2022-11-07T10:41:06.919Z,16.12
2022-11-07T10:42:05.938Z,16.06
2022-11-07T10:43:05.910Z,16.16
2022-11-07T10:44:05.971Z,16.14
2022-11-07T10:45:05.879Z,16.11
2022-11-07T10:46:05.872Z,16.04
2022-11-07T10:47:05.879Z,16.04
2022-11-07T10:48:05.851Z,16.09
2022-11-07T10:49:05.837Z,16.16
2022-11-07T10:50:05.830Z,16.52
2022-11-07T10:51:05.811Z,16.78
2022-11-07T10:52:05.830Z,16.63
2022-11-07T10:53:05.793Z,16.52
2022-11-07T10:54:05.792Z,16.26
2022-11-07T10:55:05.763Z,16.22
2022-11-07T10:56:05.764Z,16.12
2022-11-07T10:57:05.752Z,16.11
2022-11-07T10:58:05.760Z,16.09
2022-11-07T10:59:05.724Z,16.03
2022-11-07T11:00:05.714Z,16.11
2022-11-07T11:01:05.790Z,16.07
2022-11-07T11:02:05.767Z,16.06
2022-11-07T11:03:05.723Z,16.01
2022-11-07T11:04:05.672Z,16.12
2022-11-07T11:05:05.661Z,16.15
2022-11-07T11:06:05.655Z,16.12
2022-11-07T11:07:05.633Z,16.09
2022-11-07T11:08:05.627Z,15.89
2022-11-07T11:09:05.633Z,15.84
2022-11-07T11:10:05.606Z,15.68
2022-11-07T11:11:05.594Z,15.61
2022-11-07T11:12:05.584Z,15.59
2022-11-07T11:13:05.566Z,15.57
2022-11-07T11:14:05.586Z,15.54
2022-11-07T11:15:05.547Z,15.45
2022-11-07T11:16:05.991Z,15.42
2022-11-07T11:17:05.590Z,15.39
2022-11-07T11:18:05.518Z,15.41
2022-11-07T11:19:05.527Z,15.38
2022-11-07T11:20:05.497Z,15.31
2022-11-07T11:21:05.502Z,15.35
2022-11-07T11:22:09.536Z,15.30
2022-11-07T11:23:05.466Z,15.28
2022-11-07T11:24:05.449Z,15.26
2022-11-07T11:25:05.456Z,15.26
2022-11-07T11:26:05.427Z,15.31
2022-11-07T11:27:05.417Z,15.38
2022-11-07T11:28:05.410Z,15.43
2022-11-07T11:29:05.402Z,15.57
2022-11-07T11:30:05.412Z,15.64
2022-11-07T11:31:05.420Z,15.70
2022-11-07T11:32:05.361Z,15.56
2022-11-07T11:33:05.350Z,15.48
2022-11-07T11:34:05.343Z,15.41
2022-11-07T11:35:05.356Z,15.36
2022-11-07T11:36:05.324Z,15.33
2022-11-07T11:37:05.310Z,15.28
2022-11-07T11:38:05.301Z,15.20
2022-11-07T11:39:05.283Z,15.11
2022-11-07T11:40:05.269Z,15.09
2022-11-07T11:41:10.509Z,15.02
2022-11-07T11:42:06.258Z,14.94
2022-11-07T11:43:05.243Z,14.84
2022-11-07T11:44:05.231Z,14.74
2022-11-07T11:45:05.279Z,14.67
2022-11-07T11:46:05.209Z,14.60
2022-11-07T11:47:05.232Z,14.50
2022-11-07T11:48:05.191Z,14.39
2022-11-07T11:49:05.174Z,14.34
2022-11-07T11:50:05.163Z,14.29
2022-11-07T11:51:05.152Z,14.25
2022-11-07T11:52:05.142Z,14.21
2022-11-07T11:53:05.161Z,14.20
2022-11-07T11:54:05.132Z,14.17
2022-11-07T11:55:05.111Z,14.17
2022-11-07T11:56:05.094Z,14.17
2022-11-07T11:57:05.084Z,14.14
2022-11-07T11:58:05.101Z,14.13
2022-11-07T11:59:05.069Z,14.13
2022-11-07T12:00:05.058Z,14.06
2022-11-07T12:01:05.044Z,14.06
2022-11-07T12:02:05.093Z,14.02
2022-11-07T12:03:05.024Z,13.98
2022-11-07T12:04:07.941Z,13.95
2022-11-07T12:05:05.056Z,13.89
2022-11-07T12:06:04.994Z,13.94
2022-11-07T12:07:04.974Z,13.99
2022-11-07T12:08:04.994Z,14.07
2022-11-07T12:09:04.955Z,14.19
2022-11-07T12:10:04.948Z,14.21
2022-11-07T12:11:04.934Z,14.25
2022-11-07T12:12:04.926Z,14.46
2022-11-07T12:13:04.911Z,14.68
2022-11-07T12:14:04.924Z,14.78
2022-11-07T12:15:04.927Z,14.84
2022-11-07T12:16:04.908Z,15.03
2022-11-07T12:17:04.866Z,15.24
2022-11-07T12:18:04.865Z,15.12
2022-11-07T12:19:04.846Z,15.02
2022-11-07T12:20:04.857Z,15.01
2022-11-07T12:21:04.825Z,14.94
2022-11-07T12:22:04.816Z,14.93
2022-11-07T12:23:04.798Z,14.98
2022-11-07T12:24:04.794Z,15.05
2022-11-07T12:25:04.827Z,15.03
2022-11-07T12:26:04.770Z,14.93
2022-11-07T12:27:04.757Z,14.90
2022-11-07T12:28:04.747Z,14.83
2022-11-07T12:29:04.738Z,14.75
2022-11-07T12:30:04.735Z,14.72
2022-11-07T12:31:04.743Z,14.75
2022-11-07T12:32:04.728Z,14.75
2022-11-07T12:33:05.515Z,14.78
2022-11-07T12:34:04.688Z,14.86
2022-11-07T12:35:04.670Z,14.88
2022-11-07T12:36:04.671Z,14.87
2022-11-07T12:37:04.681Z,14.83
2022-11-07T12:38:04.641Z,14.74
2022-11-07T12:39:04.630Z,14.65
2022-11-07T12:40:04.635Z,14.61
2022-11-07T12:41:04.601Z,14.56
2022-11-07T12:42:04.600Z,14.54
2022-11-07T12:43:04.601Z,14.54
2022-11-07T12:44:04.580Z,14.60
2022-11-07T12:45:04.560Z,14.64
2022-11-07T12:46:04.551Z,14.72
2022-11-07T12:47:04.544Z,14.74
2022-11-07T12:48:08.723Z,14.80
2022-11-07T12:49:05.512Z,14.75
2022-11-07T12:50:04.511Z,14.75
2022-11-07T12:51:04.497Z,14.84
2022-11-07T12:52:04.498Z,14.81
2022-11-07T12:53:04.475Z,14.74
2022-11-07T12:54:04.492Z,14.71